Map

Track Data

SID SEASON NUMBER BASIN SUBBASIN NAME ISO_TIME NATURE LAT LON WMO_WIND WMO_PRES WMO_AGENCY TRACK_TYPE DIST2LAND LANDFALL IFLAG USA_AGENCY USA_ATCF_ID USA_LAT USA_LON USA_RECORD USA_STATUS USA_WIND USA_PRES USA_SSHS USA_R34_NE USA_R34_SE USA_R34_SW USA_R34_NW USA_R50_NE USA_R50_SE USA_R50_SW USA_R50_NW USA_R64_NE USA_R64_SE USA_R64_SW USA_R64_NW USA_POCI USA_ROCI USA_RMW USA_EYE TOKYO_LAT TOKYO_LON TOKYO_GRADE TOKYO_WIND TOKYO_PRES TOKYO_R50_DIR TOKYO_R50_LONG TOKYO_R50_SHORT TOKYO_R30_DIR TOKYO_R30_LONG TOKYO_R30_SHORT TOKYO_LAND CMA_LAT CMA_LON CMA_CAT CMA_WIND CMA_PRES HKO_LAT HKO_LON HKO_CAT HKO_WIND HKO_PRES NEWDELHI_LAT NEWDELHI_LON NEWDELHI_GRADE NEWDELHI_WIND NEWDELHI_PRES NEWDELHI_CI NEWDELHI_DP NEWDELHI_POCI REUNION_LAT REUNION_LON REUNION_TYPE REUNION_WIND REUNION_PRES REUNION_TNUM REUNION_CI REUNION_RMW REUNION_R34_NE REUNION_R34_SE REUNION_R34_SW REUNION_R34_NW REUNION_R50_NE REUNION_R50_SE REUNION_R50_SW REUNION_R50_NW REUNION_R64_NE REUNION_R64_SE REUNION_R64_SW REUNION_R64_NW BOM_LAT BOM_LON BOM_TYPE BOM_WIND BOM_PRES BOM_TNUM BOM_CI BOM_RMW BOM_R34_NE BOM_R34_SE BOM_R34_SW BOM_R34_NW BOM_R50_NE BOM_R50_SE BOM_R50_SW BOM_R50_NW BOM_R64_NE BOM_R64_SE BOM_R64_SW BOM_R64_NW BOM_ROCI BOM_POCI BOM_EYE BOM_POS_METHOD BOM_PRES_METHOD NADI_LAT NADI_LON NADI_CAT NADI_WIND NADI_PRES WELLINGTON_LAT WELLINGTON_LON WELLINGTON_WIND WELLINGTON_PRES DS824_LAT DS824_LON DS824_STAGE DS824_WIND DS824_PRES TD9636_LAT TD9636_LON TD9636_STAGE TD9636_WIND TD9636_PRES TD9635_LAT TD9635_LON TD9635_WIND TD9635_PRES TD9635_ROCI NEUMANN_LAT NEUMANN_LON NEUMANN_CLASS NEUMANN_WIND NEUMANN_PRES MLC_LAT MLC_LON MLC_CLASS MLC_WIND MLC_PRES USA_GUST BOM_GUST BOM_GUST_PER REUNION_GUST REUNION_GUST_PER USA_SEAHGT USA_SEARAD_NE USA_SEARAD_SE USA_SEARAD_SW USA_SEARAD_NW STORM_SPEED STORM_DIR
1957096S10136 1957 28 SP EA NOT_NAMED 1957-04-06 11:00:00 NR -10.1000 135.500 main 224 224 __________O___ -1 -10.1000 135.500 1 10 263
1957096S10136 1957 28 SP EA NOT_NAMED 1957-04-06 12:00:00 TS -10.1206 135.324 main 226 213 O_________P___ jtwc_sh SH301957 -10.1000 135.300 -1 -10.1412 135.349 1 10 259
1957096S10136 1957 28 SI WA NOT_NAMED 1957-04-06 15:00:00 TS -10.2277 134.834 main 209 184 P_________P___ SH301957 -10.2078 134.773 -1 -10.2542 134.916 1 9 257
1957096S10136 1957 28 SI WA NOT_NAMED 1957-04-06 18:00:00 TS -10.3120 134.465 main 184 176 O_________P___ jtwc_sh SH301957 -10.3000 134.400 -1 -10.3300 134.561 1 5 257
1957096S10136 1957 28 SI WA NOT_NAMED 1957-04-06 21:00:00 TS -10.3487 134.311 main 176 176 P_________P___ SH301957 -10.3524 134.295 -1 -10.3415 134.342 1 2 265
1957096S10136 1957 28 SI WA NOT_NAMED 1957-04-06 23:00:00 TS -10.3225 134.332 main 176 176 P_________O___ SH301957 -10.3337 134.348 -1 -10.3000 134.300 1 2 39
1957096S10136 1957 28 SI WA NOT_NAMED 1957-04-07 00:00:00 TS -10.2873 134.372 main 180 180 O_________P___ jtwc_sh SH301957 -10.3000 134.400 -1 -10.2620 134.316 1 5 42
1957096S10136 1957 28 SI WA NOT_NAMED 1957-04-07 03:00:00 TS -10.0710 134.567 main 209 209 P_________P___ SH301957 -10.0575 134.605 -1 -10.0981 134.491 1 7 47
1957096S10136 1957 28 SI WA NOT_NAMED 1957-04-07 05:00:00 TS -9.91304 134.779 1006 bom main 239 239 P_____O___P___ SH301957 -9.87362 134.798 -1 -10.0000 135.000 1006 -9.97016 134.686 1 8 66
1957096S10136 1957 28 SI WA NOT_NAMED 1957-04-07 06:00:00 TS -9.90739 134.937 main 244 236 O_____P__OP___ jtwc_sh SH301957 -9.80000 134.900 -1 -10.0904 135.131 1005 -10.4000 135.400 TC 15 1006 -9.90752 134.798 1 10 103
1957096S10136 1957 28 SP EA NOT_NAMED 1957-04-07 09:00:00 TS -10.0556 135.418 main 225 212 P_____P__PP___ SH301957 -9.69001 135.200 -1 -10.3409 135.487 1005 -11.6962 136.700 TC 17 1005 -9.75259 135.162 1 10 113
1957096S10136 1957 28 SP EA NOT_NAMED 1957-04-07 11:00:00 TS -10.2449 135.735 main 212 201 P_____P__PO___ SH301957 -9.68334 135.403 -1 -10.4703 135.655 1005 -12.1683 137.173 TC 19 1004 -9.70000 135.400 1 11 124
1957096S10136 1957 28 SP EA NOT_NAMED 1957-04-07 12:00:00 TS -10.3652 135.879 main 190 190 O_____P__OP___ jtwc_sh SH301957 -9.70000 135.500 -1 -10.5177 135.708 1004 -12.2000 137.200 TC 20 1004 -9.70851 135.488 1 2 109
1957096S10136 1957 28 SP EA NOT_NAMED 1957-04-07 15:00:00 TS -10.2914 135.876 main 201 201 P_____P__PP___ SH301957 -9.81246 135.757 -1 -10.5662 135.692 1004 -11.4663 136.427 TC 20 1004 -9.79968 135.746 1 2 330
1957096S10136 1957 28 SP EA NOT_NAMED 1957-04-07 17:00:00 TS -10.1970 135.778 1004 bom main 212 212 P_____O__PP___ SH301957 -9.93378 135.919 -1 -10.5000 135.500 1004 -10.7152 135.638 TC 20 1004 -9.90243 135.915 1 4 312
1957096S10136 1957 28 SP EA NOT_NAMED 1957-04-07 18:00:00 TS -10.1591 135.728 main 212 212 O_____P__OP___ jtwc_sh SH301957 -10.0000 136.000 -1 -10.4328 135.342 1004 -10.4000 135.300 TC 20 1004 -9.96257 135.998 1 2 292
1957096S10136 1957 28 SP EA NOT_NAMED 1957-04-07 21:00:00 TS -10.1560 135.671 main 212 212 P_____P__PP___ SH301957 -10.2000 136.257 -1 -10.1613 134.776 1004 -10.0560 134.822 TC 20 1004 -10.1628 136.242 1 1 231
1957096S10136 1957 28 SP EA NOT_NAMED 1957-04-07 23:00:00 TS -10.1946 135.690 1004 bom main 212 212 P_____O__PO___ SH301957 -10.3364 136.422 -1 -10.0000 134.500 1004 -10.0004 134.704 TC 20 1004 -10.3000 136.400 4 2 139
1957096S10136 1957 28 SP EA NOT_NAMED 1957-04-08 00:00:00 TS -10.2226 135.733 main 212 201 O_____P__OP___ jtwc_sh SH301957 -10.4000 136.500 -1 -9.95311 134.494 1003 -10.0000 134.700 TC 20 1004 -10.3598 136.473 4 4 112
1957096S10136 1957 28 SP EA NOT_NAMED 1957-04-08 03:00:00 TS -10.2970 135.949 main 201 180 P_____P__PP___ SH301957 -10.5500 136.700 -1 -9.89696 134.782 1000 -9.94097 134.878 TC 25 1001 -10.5470 136.686 4 6 110
1957096S10136 1957 28 SP EA NOT_NAMED 1957-04-08 06:00:00 TS -10.4174 136.280 main 180 157 O_____P__PP___ jtwc_sh SH301957 -10.7000 136.900 -1 -9.95938 135.364 998 -9.99448 135.338 TC 30 999 -10.7333 136.900 4 8 113
1957096S10136 1957 28 SP EA NOT_NAMED 1957-04-08 09:00:00 TS -10.6028 136.670 main 158 149 P_____P__PP___ SH301957 -10.9150 137.135 -1 -10.1302 136.023 995 -10.1506 135.928 TC 35 996 -10.9034 137.130 4 9 117
1957096S10136 1957 28 SP EA NOT_NAMED 1957-04-08 11:00:00 TS -10.7405 136.927 994 bom main 151 141 P_____O__PO___ SH301957 -11.0478 137.308 -1 -10.3000 136.400 994 -10.3070 136.321 TC 38 994 -11.0000 137.300 1 8 120
1957096S10136 1957 28 SP EA NOT_NAMED 1957-04-08 12:00:00 TS -10.8129 137.035 main 145 135 O_____P__OP___ jtwc_sh SH301957 -11.1000 137.400 -1 -10.4053 136.482 994 -10.4000 136.500 TC 40 994 -11.0593 137.394 1 7 126
1957096S10136 1957 28 SP EA NOT_NAMED 1957-04-08 15:00:00 TS -11.0230 137.328 main 141 140 P_____P__PP___ SH301957 -11.1725 137.685 -1 -10.7718 136.729 996 -10.7741 136.848 TC 37 996 -11.2239 137.696 1 7 122
1957096S10136 1957 28 SP EA NOT_NAMED 1957-04-08 17:00:00 TS -11.1400 137.564 998 bom main 149 139 P_____O__PP___ SH301957 -11.1912 137.892 -1 -11.0000 137.000 998 -11.0102 137.127 TC 35 997 -11.3075 137.912 1 8 114
1957096S10136 1957 28 SP EA NOT_NAMED 1957-04-08 18:00:00 TS -11.1936 137.710 main 144 144 O_____P__OP___ jtwc_sh SH301957 -11.2000 138.000 -1 -11.1313 137.228 998 -11.1000 137.300 TC 35 998 -11.3369 138.023 1 10 107
1957096S10136 1957 28 SP EA NOT_NAMED 1957-04-08 21:00:00 TS -11.3422 138.234 main 172 172 P_____P__PP___ SH301957 -11.3175 138.342 -1 -11.4257 138.067 999 -11.2930 138.050 TC 32 999 -11.3575 138.367 1 10 99
1957096S10136 1957 28 SP EA NOT_NAMED 1957-04-08 23:00:00 TS -11.3286 138.587 1000 bom main 207 207 P_____O__PO___ SH301957 -11.3347 138.581 -1 -11.4000 138.600 1000 -11.2735 138.571 TC 30 999 -11.3000 138.600 1 10 79
1957096S10136 1957 28 SP EA NOT_NAMED 1957-04-09 00:00:00 TS -11.2465 138.744 main 222 222 O_____P__OP___ jtwc_sh SH301957 -11.3000 138.700 -1 -11.2326 138.801 1000 -11.2000 138.800 TC 30 1000 -11.1998 138.721 1 12 43
1957096S10136 1957 28 SP EA NOT_NAMED 1957-04-09 03:00:00 TS -10.7464 139.146 main 265 222 P_____P__PP___ SH301957 -10.9525 139.050 -1 -10.4536 139.270 1000 -10.5847 139.268 TC 30 1000 -10.7885 139.093 1 13 36
1957096S10136 1957 28 SP EA NOT_NAMED 1957-04-09 05:00:00 TS -10.3839 139.381 1000 bom main 222 206 P_____O__PP___ SH301957 -10.6455 139.283 -1 -10.0000 139.500 1000 -10.1484 139.497 TC 30 1000 -10.4802 139.340 1 12 34
1957096S10136 1957 28 SP EA NOT_NAMED 1957-04-09 06:00:00 TS -10.2412 139.491 main 197 160 O_____P__OP___ jtwc_sh SH301957 -10.5000 139.400 -1 -9.87275 139.593 1000 -10.0000 139.600 TC 30 1000 -10.3331 139.460 1 9 45
1957096S10136 1957 28 SP EA NOT_NAMED 1957-04-09 09:00:00 TS -9.96222 139.811 main 160 139 P_____P__PP___ SH301957 -10.0425 139.765 -1 -9.78158 139.816 1001 -9.95493 139.907 TC 27 1001 -9.98958 139.799 1 7 62
1957096S10136 1957 28 SP EA NOT_NAMED 1957-04-09 11:00:00 TS -9.96407 140.018 1002 bom main 149 141 P_____O__PO___ SH301957 -9.88628 139.995 -1 -10.0000 140.000 1002 -10.1478 140.100 TC 25 1001 -9.90000 140.000 1 7 108
1957096S10136 1957 28 SP EA NOT_NAMED 1957-04-09 12:00:00 TS -10.0645 140.133 main 148 141 O_____P__OP___ jtwc_sh SH301957 -9.90000 140.100 -1 -10.2377 140.160 1002 -10.3000 140.200 TC 25 1002 -9.98456 140.106 1 13 148
1957096S10136 1957 28 SP EA NOT_NAMED 1957-04-09 15:00:00 TS -10.7220 140.495 main 178 153 P_____P__PP___ SH301957 -10.4675 140.387 -1 -11.2241 140.707 1002 -11.0156 140.593 TC 25 1002 -10.4354 140.399 1 15 155
1957096S10136 1957 28 SP EA NOT_NAMED 1957-04-09 17:00:00 TS -11.2196 140.692 1002 bom main 154 141 P_____O__PP___ SH301957 -10.9792 140.539 -1 -11.8000 141.000 1002 -11.5125 140.819 TC 25 1002 -10.8274 140.563 1 15 159
1957096S10136 1957 28 SP EA NOT_NAMED 1957-04-09 18:00:00 TS -11.4050 140.757 main 132 118 O_____P__OP___ jtwc_sh SH301957 -11.2000 140.600 -1 -11.8961 141.054 1002 -11.7000 140.900 TC 25 1002 -11.0289 140.632 1 7 161
1957096S10136 1957 28 SP EA NOT_NAMED 1957-04-09 21:00:00 TS -11.6509 140.844 main 112 112 P_____P__PP___ SH301957 -11.5924 140.775 -1 -11.7851 140.995 1002 -11.7167 140.903 TC 25 1002 -11.5680 140.773 1 3 167
1957096S10136 1957 28 SP EA NOT_NAMED 1957-04-09 23:00:00 TS -11.6327 140.809 main 118 118 P_____P__PO___ SH301957 -11.7004 140.815 -1 -11.4716 140.828 1002 -11.4909 140.788 TC 25 1002 -11.8000 140.800 1 2 320
1957096S10136 1957 28 SP EA NOT_NAMED 1957-04-10 00:00:00 TS -11.5606 140.759 main 118 118 O_____P__PP___ jtwc_sh SH301957 -11.7000 140.800 -1 -11.2708 140.723 1002 -11.3305 140.708 TC 25 1002 -11.8016 140.765 1 8 327
1957096S10136 1957 28 SP EA NOT_NAMED 1957-04-10 03:00:00 TS -11.1863 140.508 main 172 172 P_____P__PP___ SH301957 -11.4676 140.580 -1 -10.6044 140.386 1002 -10.7540 140.435 TC 25 1002 -11.6380 140.561 1 10 328
1957096S10136 1957 28 SP EA NOT_NAMED 1957-04-10 05:00:00 TS -10.8868 140.324 1002 bom main 196 196 P_____O__PP___ SH301957 -11.2175 140.384 -1 -10.2000 140.200 1002 -10.3690 140.267 TC 25 1002 -11.4302 140.384 1 10 330
1957096S10136 1957 28 SP EA NOT_NAMED 1957-04-10 06:00:00 TS -10.7686 140.257 main 197 182 O_____P__OP___ jtwc_sh SH301957 -11.1000 140.300 -1 -10.1336 140.189 -10.2000 140.200 TC 25 1002 -11.3092 140.295 1 6 333
1957096S10136 1957 28 SP EA NOT_NAMED 1957-04-10 09:00:00 TS -10.5071 140.128 main 182 173 P_____P__PP___ SH301957 -10.8774 140.125 -1 -10.0127 140.222 -9.83983 140.097 TC -10.9278 140.072 1 5 339
1957096S10136 1957 28 SP EA NOT_NAMED 1957-04-10 11:00:00 TS -10.3818 140.112 main 173 164 P_____P__PO___ SH301957 -10.7557 140.085 -1 -9.98623 140.288 -9.71136 140.102 TC -10.7000 140.000 1 3 6
1957096S10136 1957 28 SP EA NOT_NAMED 1957-04-10 12:00:00 TS -10.3401 140.137 main 164 151 O_____P__PP___ jtwc_sh SH301957 -10.7000 140.100 -1 -9.98581 140.332 -9.67624 140.123 TC -10.6383 140.029 1 4 56
1957096S10136 1957 28 SP EA NOT_NAMED 1957-04-10 15:00:00 TS -10.2497 140.312 main 142 124 P_____P__PP___ SH301957 -10.5350 140.298 -1 -10.0224 140.496 -9.66985 140.252 TC -10.4862 140.219 1 4 73
1957096S10136 1957 28 SP EA NOT_NAMED 1957-04-10 18:00:00 TS -10.2085 140.570 main 124 116 O_____P__PP___ jtwc_sh SH301957 -10.4000 140.600 -1 -10.0922 140.687 -9.78127 140.458 TC -10.3689 140.504 1 5 86
1957096S10136 1957 28 SP EA NOT_NAMED 1957-04-10 21:00:00 TS -10.2128 140.837 main 116 112 P_____P__PP___ SH301957 -10.3000 140.872 -1 -10.1649 140.881 -9.97110 140.716 TC -10.2678 140.815 1 5 90
1957096S10136 1957 28 SP EA NOT_NAMED 1957-04-10 23:00:00 TS -10.2075 141.004 1006 bom main 112 112 P_____O__PO___ SH301957 -10.2364 141.034 -1 -10.2000 141.000 1006 -10.1218 140.904 TC -10.2000 141.000 1 5 85
1957096S10136 1957 28 SP EA NOT_NAMED 1957-04-11 00:00:00 TS -10.1929 141.075 main 112 101 O_____P__OP___ jtwc_sh SH301957 -10.2000 141.100 -1 -10.2104 141.053 -10.2000 141.000 TC 15 1006 -10.1595 141.066 1 4 60
1957096S10136 1957 28 SP EA NOT_NAMED 1957-04-11 03:00:00 TS -10.0877 141.218 main 101 92 P_____P___P___ SH301957 -10.0500 141.222 -1 -10.2122 141.190 TC -10.0387 141.239 1 3 47
1957096S10136 1957 28 SP EA NOT_NAMED 1957-04-11 06:00:00 TS -9.97266 141.316 main 92 81 O_____P___P___ jtwc_sh SH301957 -9.90000 141.300 -1 -10.1744 141.293 TC -9.91623 141.373 1 3 42
1957096S10136 1957 28 SP EA NOT_NAMED 1957-04-11 09:00:00 TS -9.87301 141.416 main 81 68 P_____P___P___ SH301957 -9.80000 141.415 -1 -10.1030 141.369 TC -9.78901 141.464 1 3 41
1957096S10136 1957 28 SP EA NOT_NAMED 1957-04-11 11:00:00 TS -9.80314 141.466 main 68 68 P_____P___O___ SH301957 -9.73642 141.478 -1 -10.0397 141.407 TC -9.70000 141.500 1 2 33
1957096S10136 1957 28 SP EA NOT_NAMED 1957-04-11 12:00:00 TS -9.77369 141.481 main 68 57 O_____P___P___ jtwc_sh SH301957 -9.70000 141.500 -1 -10.0040 141.422 TC -9.65392 141.510 1 2 17
1957096S10136 1957 28 SP EA NOT_NAMED 1957-04-11 15:00:00 TS -9.65187 141.497 main 57 35 P_____P___P___ SH301957 -9.56250 141.520 -1 -9.88321 141.457 TC -9.50991 141.514 1 3 3
1957096S10136 1957 28 SP EA NOT_NAMED 1957-04-11 18:00:00 TS -9.51469 141.487 main 35 24 O_____P___P___ jtwc_sh SH301957 -9.40000 141.500 -1 -9.74664 141.479 -9.35921 141.485 1 3 350
1957096S10136 1957 28 SP EA NOT_NAMED 1957-04-11 21:00:00 NR -9.40226 141.465 main 24 15 ______P___P___ SH301957 -1 -9.60019 141.493 -9.20434 141.437 1 3 352
1957096S10136 1957 28 SP EA NOT_NAMED 1957-04-11 23:00:00 NR -9.30000 141.450 1007 bom main 15 ______O___O___ SH301957 -1 -9.50000 141.500 1007 -9.10000 141.400 1 3 348

Digital Typhoon Data and Search

About IBTrACS Database

This database is a web-friendly format of International Best Track Archive for Climate Stewardship (IBTrACS), a global best track data archive curated by NOAA dating back to 1842.

Updated: 2021-10-21